sensor_id;sensor_type;location;lat;lon;timestamp;pressure;altitude;pressure_sealevel;temperature;humidity
50368;BME280;36281;34.132;-118.018;2023-04-08T00:00:06;100026.00;;;24.24;24.54
50368;BME280;36281;34.132;-118.018;2023-04-08T00:02:36;100047.25;;;24.17;24.50
50368;BME280;36281;34.132;-118.018;2023-04-08T00:05:06;100032.97;;;23.98;24.94
50368;BME280;36281;34.132;-118.018;2023-04-08T00:07:37;100045.56;;;23.89;24.41
50368;BME280;36281;34.132;-118.018;2023-04-08T00:10:07;100041.50;;;23.72;24.51
50368;BME280;36281;34.132;-118.018;2023-04-08T00:12:36;100046.91;;;23.72;24.71
50368;BME280;36281;34.132;-118.018;2023-04-08T00:15:06;100045.66;;;23.65;25.06
50368;BME280;36281;34.132;-118.018;2023-04-08T00:17:35;100054.41;;;23.57;24.21
50368;BME280;36281;34.132;-118.018;2023-04-08T00:20:05;100047.22;;;23.47;24.84
50368;BME280;36281;34.132;-118.018;2023-04-08T00:22:36;100035.84;;;23.31;25.62
50368;BME280;36281;34.132;-118.018;2023-04-08T00:25:06;100049.22;;;23.41;25.27
50368;BME280;36281;34.132;-118.018;2023-04-08T00:27:36;100057.13;;;23.38;24.61
50368;BME280;36281;34.132;-118.018;2023-04-08T00:30:07;100066.38;;;23.32;24.83
50368;BME280;36281;34.132;-118.018;2023-04-08T00:32:36;100055.06;;;23.30;24.51
50368;BME280;36281;34.132;-118.018;2023-04-08T00:35:06;100064.09;;;23.20;25.55
50368;BME280;36281;34.132;-118.018;2023-04-08T00:37:36;100065.59;;;23.07;26.28
50368;BME280;36281;34.132;-118.018;2023-04-08T00:40:06;100071.06;;;23.02;26.43
50368;BME280;36281;34.132;-118.018;2023-04-08T00:42:35;100067.94;;;22.95;27.22
50368;BME280;36281;34.132;-118.018;2023-04-08T00:45:05;100064.75;;;22.88;27.65
50368;BME280;36281;34.132;-118.018;2023-04-08T00:47:35;100076.25;;;22.75;28.04
50368;BME280;36281;34.132;-118.018;2023-04-08T00:50:07;100072.56;;;22.65;28.05
50368;BME280;36281;34.132;-118.018;2023-04-08T00:52:39;100074.31;;;22.51;27.87
50368;BME280;36281;34.132;-118.018;2023-04-08T00:55:08;100080.94;;;22.40;27.61
50368;BME280;36281;34.132;-118.018;2023-04-08T00:57:37;100084.22;;;22.32;27.49
50368;BME280;36281;34.132;-118.018;2023-04-08T01:00:08;100091.38;;;22.17;28.00
50368;BME280;36281;34.132;-118.018;2023-04-08T01:02:44;100086.56;;;22.09;27.89
50368;BME280;36281;34.132;-118.018;2023-04-08T01:05:21;100085.00;;;22.03;28.11
50368;BME280;36281;34.132;-118.018;2023-04-08T01:07:56;100081.56;;;21.92;28.22
50368;BME280;36281;34.132;-118.018;2023-04-08T01:10:29;100088.63;;;21.88;26.98
50368;BME280;36281;34.132;-118.018;2023-04-08T01:13:01;100091.16;;;21.75;27.60
50368;BME280;36281;34.132;-118.018;2023-04-08T01:15:34;100097.63;;;21.74;28.49
50368;BME280;36281;34.132;-118.018;2023-04-08T01:18:07;100102.50;;;21.66;28.12
50368;BME280;36281;34.132;-118.018;2023-04-08T01:20:37;100082.41;;;21.49;27.84
50368;BME280;36281;34.132;-118.018;2023-04-08T01:23:14;100099.41;;;21.44;28.25
50368;BME280;36281;34.132;-118.018;2023-04-08T01:25:51;100091.34;;;21.44;28.64
50368;BME280;36281;34.132;-118.018;2023-04-08T01:28:23;100087.31;;;21.36;28.46
50368;BME280;36281;34.132;-118.018;2023-04-08T01:30:55;100096.53;;;21.30;29.06
50368;BME280;36281;34.132;-118.018;2023-04-08T01:33:27;100074.22;;;21.09;29.22
50368;BME280;36281;34.132;-118.018;2023-04-08T01:35:58;100091.69;;;21.17;29.29
50368;BME280;36281;34.132;-118.018;2023-04-08T01:38:29;100097.09;;;21.12;28.95
50368;BME280;36281;34.132;-118.018;2023-04-08T01:41:01;100097.16;;;20.97;28.44
50368;BME280;36281;34.132;-118.018;2023-04-08T01:43:33;100103.91;;;20.94;28.51
50368;BME280;36281;34.132;-118.018;2023-04-08T01:46:03;100091.53;;;20.83;28.54
50368;BME280;36281;34.132;-118.018;2023-04-08T01:48:33;100110.66;;;20.81;29.10
50368;BME280;36281;34.132;-118.018;2023-04-08T01:51:04;100070.88;;;20.58;28.72
50368;BME280;36281;34.132;-118.018;2023-04-08T01:53:33;100098.59;;;20.69;28.76
50368;BME280;36281;34.132;-118.018;2023-04-08T01:56:05;100096.19;;;20.57;28.68
50368;BME280;36281;34.132;-118.018;2023-04-08T01:58:38;100104.56;;;20.50;29.05
50368;BME280;36281;34.132;-118.018;2023-04-08T02:01:11;100103.97;;;20.38;29.46
50368;BME280;36281;34.132;-118.018;2023-04-08T02:03:42;100092.16;;;20.19;30.20
50368;BME280;36281;34.132;-118.018;2023-04-08T02:06:12;100107.22;;;20.25;30.53
50368;BME280;36281;34.132;-118.018;2023-04-08T02:08:41;100109.38;;;20.18;30.69
50368;BME280;36281;34.132;-118.018;2023-04-08T02:11:12;100117.19;;;20.14;30.90
50368;BME280;36281;34.132;-118.018;2023-04-08T02:13:41;100116.63;;;20.07;30.20
50368;BME280;36281;34.132;-118.018;2023-04-08T02:16:15;100117.72;;;20.01;30.08
50368;BME280;36281;34.132;-118.018;2023-04-08T02:18:47;100115.28;;;19.94;28.79
50368;BME280;36281;34.132;-118.018;2023-04-08T02:21:22;100117.13;;;19.83;28.68
50368;BME280;36281;34.132;-118.018;2023-04-08T02:23:56;100106.91;;;19.70;28.67
50368;BME280;36281;34.132;-118.018;2023-04-08T02:26:33;100120.88;;;19.67;28.48
50368;BME280;36281;34.132;-118.018;2023-04-08T02:29:04;100123.81;;;19.60;28.45
50368;BME280;36281;34.132;-118.018;2023-04-08T02:31:34;100119.22;;;19.56;28.78
50368;BME280;36281;34.132;-118.018;2023-04-08T02:34:04;100127.25;;;19.51;29.23
50368;BME280;36281;34.132;-118.018;2023-04-08T02:36:36;100132.63;;;19.46;29.55
50368;BME280;36281;34.132;-118.018;2023-04-08T02:39:06;100122.66;;;19.41;29.50
50368;BME280;36281;34.132;-118.018;2023-04-08T02:41:37;100129.34;;;19.33;29.54
50368;BME280;36281;34.132;-118.018;2023-04-08T02:44:06;100123.13;;;19.28;29.95
50368;BME280;36281;34.132;-118.018;2023-04-08T02:46:35;100121.25;;;19.23;30.40
50368;BME280;36281;34.132;-118.018;2023-04-08T02:49:04;100129.28;;;19.18;30.58
50368;BME280;36281;34.132;-118.018;2023-04-08T02:51:33;100131.94;;;19.13;30.76
50368;BME280;36281;34.132;-118.018;2023-04-08T02:54:02;100135.66;;;19.07;31.28
50368;BME280;36281;34.132;-118.018;2023-04-08T02:56:31;100131.63;;;19.04;32.39
50368;BME280;36281;34.132;-118.018;2023-04-08T02:59:02;100134.84;;;19.01;32.68
50368;BME280;36281;34.132;-118.018;2023-04-08T03:01:31;100132.63;;;18.93;31.98
50368;BME280;36281;34.132;-118.018;2023-04-08T03:04:00;100137.97;;;18.88;32.95
50368;BME280;36281;34.132;-118.018;2023-04-08T03:06:29;100148.41;;;18.84;32.64
50368;BME280;36281;34.132;-118.018;2023-04-08T03:08:59;100153.25;;;18.82;32.48
50368;BME280;36281;34.132;-118.018;2023-04-08T03:11:28;100148.66;;;18.78;33.02
50368;BME280;36281;34.132;-118.018;2023-04-08T03:13:58;100154.56;;;18.75;33.32
50368;BME280;36281;34.132;-118.018;2023-04-08T03:16:28;100152.06;;;18.68;33.62
50368;BME280;36281;34.132;-118.018;2023-04-08T03:18:58;100152.00;;;18.63;34.16
50368;BME280;36281;34.132;-118.018;2023-04-08T03:21:27;100166.72;;;18.55;34.66
50368;BME280;36281;34.132;-118.018;2023-04-08T03:23:59;100167.22;;;18.52;34.60
50368;BME280;36281;34.132;-118.018;2023-04-08T03:26:28;100171.47;;;18.48;35.27
50368;BME280;36281;34.132;-118.018;2023-04-08T03:28:57;100177.38;;;18.45;35.51
50368;BME280;36281;34.132;-118.018;2023-04-08T03:31:28;100184.53;;;18.40;36.07
50368;BME280;36281;34.132;-118.018;2023-04-08T03:33:57;100186.31;;;18.29;36.96
50368;BME280;36281;34.132;-118.018;2023-04-08T03:36:26;100190.53;;;18.20;37.22
50368;BME280;36281;34.132;-118.018;2023-04-08T03:38:55;100193.69;;;18.12;37.73
50368;BME280;36281;34.132;-118.018;2023-04-08T03:41:24;100201.41;;;18.08;37.81
50368;BME280;36281;34.132;-118.018;2023-04-08T03:43:53;100198.94;;;18.01;37.83
50368;BME280;36281;34.132;-118.018;2023-04-08T03:46:22;100200.47;;;17.92;37.71
50368;BME280;36281;34.132;-118.018;2023-04-08T03:48:53;100203.56;;;17.84;38.04
50368;BME280;36281;34.132;-118.018;2023-04-08T03:51:22;100214.50;;;17.77;38.16
50368;BME280;36281;34.132;-118.018;2023-04-08T03:53:51;100207.44;;;17.71;38.34
50368;BME280;36281;34.132;-118.018;2023-04-08T03:56:20;100212.22;;;17.69;38.28
50368;BME280;36281;34.132;-118.018;2023-04-08T03:58:49;100219.97;;;17.66;39.28
50368;BME280;36281;34.132;-118.018;2023-04-08T04:01:18;100221.50;;;17.62;39.80
50368;BME280;36281;34.132;-118.018;2023-04-08T04:03:47;100227.34;;;17.58;39.49
50368;BME280;36281;34.132;-118.018;2023-04-08T04:06:18;100225.66;;;17.52;38.63
50368;BME280;36281;34.132;-118.018;2023-04-08T04:08:48;100225.59;;;17.47;39.49
50368;BME280;36281;34.132;-118.018;2023-04-08T04:11:29;100214.44;;;17.34;40.41
50368;BME280;36281;34.132;-118.018;2023-04-08T04:13:58;100228.16;;;17.37;38.63
50368;BME280;36281;34.132;-118.018;2023-04-08T04:16:27;100234.25;;;17.33;38.50
50368;BME280;36281;34.132;-118.018;2023-04-08T04:18:59;100233.91;;;17.29;39.31
50368;BME280;36281;34.132;-118.018;2023-04-08T04:21:30;100230.13;;;17.25;40.08
50368;BME280;36281;34.132;-118.018;2023-04-08T04:23:59;100226.34;;;17.21;40.15
50368;BME280;36281;34.132;-118.018;2023-04-08T04:26:28;100232.16;;;17.18;39.68
50368;BME280;36281;34.132;-118.018;2023-04-08T04:28:57;100243.59;;;17.13;40.28
50368;BME280;36281;34.132;-118.018;2023-04-08T04:31:26;100237.38;;;17.08;40.43
50368;BME280;36281;34.132;-118.018;2023-04-08T04:33:55;100239.97;;;17.02;40.86
50368;BME280;36281;34.132;-118.018;2023-04-08T04:36:24;100242.25;;;16.94;40.77
50368;BME280;36281;34.132;-118.018;2023-04-08T04:38:55;100244.59;;;16.90;41.01
50368;BME280;36281;34.132;-118.018;2023-04-08T04:41:24;100239.66;;;16.82;41.54
50368;BME280;36281;34.132;-118.018;2023-04-08T04:43:54;100242.25;;;16.77;41.93
50368;BME280;36281;34.132;-118.018;2023-04-08T04:46:23;100245.28;;;16.69;42.19
50368;BME280;36281;34.132;-118.018;2023-04-08T04:48:52;100252.69;;;16.62;42.64
50368;BME280;36281;34.132;-118.018;2023-04-08T04:51:22;100252.59;;;16.57;42.46
50368;BME280;36281;34.132;-118.018;2023-04-08T04:53:51;100256.00;;;16.52;42.22
50368;BME280;36281;34.132;-118.018;2023-04-08T04:56:21;100247.88;;;16.47;42.52
50368;BME280;36281;34.132;-118.018;2023-04-08T04:58:50;100261.47;;;16.45;42.86
50368;BME280;36281;34.132;-118.018;2023-04-08T05:01:19;100249.88;;;16.40;43.15
50368;BME280;36281;34.132;-118.018;2023-04-08T05:03:49;100262.94;;;16.36;43.80
50368;BME280;36281;34.132;-118.018;2023-04-08T05:06:18;100255.63;;;16.32;44.42
50368;BME280;36281;34.132;-118.018;2023-04-08T05:08:47;100225.75;;;16.06;45.27
50368;BME280;36281;34.132;-118.018;2023-04-08T05:11:16;100257.78;;;16.18;46.86
50368;BME280;36281;34.132;-118.018;2023-04-08T05:13:47;100258.47;;;16.13;47.46
50368;BME280;36281;34.132;-118.018;2023-04-08T05:16:16;100252.16;;;16.02;48.21
50368;BME280;36281;34.132;-118.018;2023-04-08T05:18:45;100259.09;;;16.03;49.05
50368;BME280;36281;34.132;-118.018;2023-04-08T05:21:14;100267.03;;;15.98;50.06
50368;BME280;36281;34.132;-118.018;2023-04-08T05:23:43;100255.88;;;15.90;51.02
50368;BME280;36281;34.132;-118.018;2023-04-08T05:26:15;100269.13;;;15.85;51.63
50368;BME280;36281;34.132;-118.018;2023-04-08T05:28:50;100268.69;;;15.76;52.25
50368;BME280;36281;34.132;-118.018;2023-04-08T05:31:20;100270.44;;;15.70;52.77
50368;BME280;36281;34.132;-118.018;2023-04-08T05:33:49;100274.41;;;15.68;53.42
50368;BME280;36281;34.132;-118.018;2023-04-08T05:36:18;100268.34;;;15.61;54.66
50368;BME280;36281;34.132;-118.018;2023-04-08T05:38:47;100270.34;;;15.54;55.21
50368;BME280;36281;34.132;-118.018;2023-04-08T05:41:17;100271.28;;;15.47;56.13
50368;BME280;36281;34.132;-118.018;2023-04-08T05:43:46;100257.22;;;15.40;57.04
50368;BME280;36281;34.132;-118.018;2023-04-08T05:46:17;100260.72;;;15.41;57.35
50368;BME280;36281;34.132;-118.018;2023-04-08T05:48:46;100257.72;;;15.37;58.15
50368;BME280;36281;34.132;-118.018;2023-04-08T05:51:16;100256.19;;;15.30;58.93
50368;BME280;36281;34.132;-118.018;2023-04-08T05:53:45;100240.09;;;15.13;58.95
50368;BME280;36281;34.132;-118.018;2023-04-08T05:56:15;100264.34;;;15.23;59.75
50368;BME280;36281;34.132;-118.018;2023-04-08T05:58:44;100256.41;;;15.16;60.53
50368;BME280;36281;34.132;-118.018;2023-04-08T06:01:16;100262.81;;;15.15;60.82
50368;BME280;36281;34.132;-118.018;2023-04-08T06:03:46;100258.03;;;15.06;61.15
50368;BME280;36281;34.132;-118.018;2023-04-08T06:06:16;100255.16;;;14.95;61.49
50368;BME280;36281;34.132;-118.018;2023-04-08T06:08:45;100255.84;;;14.91;62.13
50368;BME280;36281;34.132;-118.018;2023-04-08T06:11:15;100259.78;;;14.88;62.56
50368;BME280;36281;34.132;-118.018;2023-04-08T06:13:44;100262.91;;;14.85;62.98
50368;BME280;36281;34.132;-118.018;2023-04-08T06:16:16;100256.50;;;14.74;63.33
50368;BME280;36281;34.132;-118.018;2023-04-08T06:18:48;100249.06;;;14.65;63.56
50368;BME280;36281;34.132;-118.018;2023-04-08T06:21:17;100268.09;;;14.68;63.85
50368;BME280;36281;34.132;-118.018;2023-04-08T06:23:46;100272.63;;;14.68;63.89
50368;BME280;36281;34.132;-118.018;2023-04-08T06:26:15;100271.22;;;14.65;64.23
50368;BME280;36281;34.132;-118.018;2023-04-08T06:28:44;100272.94;;;14.60;64.71
50368;BME280;36281;34.132;-118.018;2023-04-08T06:31:18;100275.47;;;14.55;65.00
50368;BME280;36281;34.132;-118.018;2023-04-08T06:33:47;100253.97;;;14.38;64.96
50368;BME280;36281;34.132;-118.018;2023-04-08T06:36:16;100279.34;;;14.40;65.23
50368;BME280;36281;34.132;-118.018;2023-04-08T06:38:45;100281.06;;;14.35;65.39
50368;BME280;36281;34.132;-118.018;2023-04-08T06:41:14;100285.00;;;14.32;66.07
50368;BME280;36281;34.132;-118.018;2023-04-08T06:43:43;100273.75;;;14.30;66.35
50368;BME280;36281;34.132;-118.018;2023-04-08T06:46:12;100275.34;;;14.31;66.21
50368;BME280;36281;34.132;-118.018;2023-04-08T06:48:43;100274.22;;;14.27;66.47
50368;BME280;36281;34.132;-118.018;2023-04-08T06:51:12;100275.69;;;14.23;66.98
50368;BME280;36281;34.132;-118.018;2023-04-08T06:53:41;100277.75;;;14.21;66.97
50368;BME280;36281;34.132;-118.018;2023-04-08T06:56:10;100280.28;;;14.16;67.22
50368;BME280;36281;34.132;-118.018;2023-04-08T06:58:39;100278.75;;;14.08;67.93
50368;BME280;36281;34.132;-118.018;2023-04-08T07:01:08;100279.41;;;14.04;67.68
50368;BME280;36281;34.132;-118.018;2023-04-08T07:03:37;100275.56;;;14.00;67.67
50368;BME280;36281;34.132;-118.018;2023-04-08T07:06:08;100283.00;;;13.98;67.80
50368;BME280;36281;34.132;-118.018;2023-04-08T07:08:37;100291.84;;;13.91;68.38
50368;BME280;36281;34.132;-118.018;2023-04-08T07:11:06;100286.59;;;13.85;69.24
50368;BME280;36281;34.132;-118.018;2023-04-08T07:13:35;100277.44;;;13.81;69.21
50368;BME280;36281;34.132;-118.018;2023-04-08T07:16:05;100279.72;;;13.77;69.42
50368;BME280;36281;34.132;-118.018;2023-04-08T07:18:34;100281.88;;;13.68;70.13
50368;BME280;36281;34.132;-118.018;2023-04-08T07:21:04;100276.34;;;13.70;69.83
50368;BME280;36281;34.132;-118.018;2023-04-08T07:23:34;100285.34;;;13.69;69.67
50368;BME280;36281;34.132;-118.018;2023-04-08T07:26:04;100273.16;;;13.61;69.95
50368;BME280;36281;34.132;-118.018;2023-04-08T07:28:33;100280.53;;;13.59;70.20
50368;BME280;36281;34.132;-118.018;2023-04-08T07:31:09;100283.63;;;13.56;70.64
50368;BME280;36281;34.132;-118.018;2023-04-08T07:33:39;100281.22;;;13.55;71.10
50368;BME280;36281;34.132;-118.018;2023-04-08T07:36:09;100286.75;;;13.53;71.03
50368;BME280;36281;34.132;-118.018;2023-04-08T07:38:40;100282.69;;;13.51;71.11
50368;BME280;36281;34.132;-118.018;2023-04-08T07:41:09;100277.44;;;13.44;71.06
50368;BME280;36281;34.132;-118.018;2023-04-08T07:43:38;100269.72;;;13.36;71.91
50368;BME280;36281;34.132;-118.018;2023-04-08T07:46:07;100276.91;;;13.35;71.83
50368;BME280;36281;34.132;-118.018;2023-04-08T07:48:37;100272.84;;;13.33;71.97
50368;BME280;36281;34.132;-118.018;2023-04-08T07:51:07;100280.44;;;13.29;71.61
50368;BME280;36281;34.132;-118.018;2023-04-08T07:53:40;100278.81;;;13.28;71.74
50368;BME280;36281;34.132;-118.018;2023-04-08T07:56:13;100282.50;;;13.27;72.22
50368;BME280;36281;34.132;-118.018;2023-04-08T07:58:42;100280.28;;;13.24;72.00
50368;BME280;36281;34.132;-118.018;2023-04-08T08:01:16;100278.44;;;13.25;70.40
50368;BME280;36281;34.132;-118.018;2023-04-08T08:03:46;100274.16;;;13.24;69.29
50368;BME280;36281;34.132;-118.018;2023-04-08T08:06:15;100263.31;;;13.18;67.74
50368;BME280;36281;34.132;-118.018;2023-04-08T08:08:46;100261.53;;;13.12;67.92
50368;BME280;36281;34.132;-118.018;2023-04-08T08:11:15;100263.81;;;13.09;68.19
50368;BME280;36281;34.132;-118.018;2023-04-08T08:13:44;100255.03;;;13.08;67.82
50368;BME280;36281;34.132;-118.018;2023-04-08T08:16:13;100258.94;;;13.06;67.37
50368;BME280;36281;34.132;-118.018;2023-04-08T08:18:42;100263.84;;;13.02;67.30
50368;BME280;36281;34.132;-118.018;2023-04-08T08:21:12;100259.00;;;12.99;67.81
50368;BME280;36281;34.132;-118.018;2023-04-08T08:23:41;100255.72;;;12.97;67.39
50368;BME280;36281;34.132;-118.018;2023-04-08T08:26:11;100263.13;;;12.95;67.03
50368;BME280;36281;34.132;-118.018;2023-04-08T08:28:41;100257.41;;;12.91;66.33
50368;BME280;36281;34.132;-118.018;2023-04-08T08:31:10;100263.38;;;12.87;66.44
50368;BME280;36281;34.132;-118.018;2023-04-08T08:33:39;100266.69;;;12.82;66.35
50368;BME280;36281;34.132;-118.018;2023-04-08T08:36:08;100254.88;;;12.78;66.92
50368;BME280;36281;34.132;-118.018;2023-04-08T08:38:37;100246.38;;;12.63;66.95
50368;BME280;36281;34.132;-118.018;2023-04-08T08:41:06;100261.25;;;12.71;67.96
50368;BME280;36281;34.132;-118.018;2023-04-08T08:43:37;100255.56;;;12.67;67.83
50368;BME280;36281;34.132;-118.018;2023-04-08T08:46:09;100254.34;;;12.63;68.41
50368;BME280;36281;34.132;-118.018;2023-04-08T08:48:41;100244.41;;;12.58;68.74
50368;BME280;36281;34.132;-118.018;2023-04-08T08:51:11;100253.75;;;12.61;68.61
50368;BME280;36281;34.132;-118.018;2023-04-08T08:53:41;100247.09;;;12.52;68.70
50368;BME280;36281;34.132;-118.018;2023-04-08T08:56:13;100255.28;;;12.50;68.67
50368;BME280;36281;34.132;-118.018;2023-04-08T08:58:47;100245.69;;;12.49;68.17
50368;BME280;36281;34.132;-118.018;2023-04-08T09:01:33;100217.56;;;12.35;67.99
50368;BME280;36281;34.132;-118.018;2023-04-08T09:04:13;100239.81;;;12.40;67.92
50368;BME280;36281;34.132;-118.018;2023-04-08T09:06:46;100240.66;;;12.34;68.36
50368;BME280;36281;34.132;-118.018;2023-04-08T09:09:17;100242.94;;;12.31;69.25
50368;BME280;36281;34.132;-118.018;2023-04-08T09:11:46;100238.25;;;12.26;69.06
50368;BME280;36281;34.132;-118.018;2023-04-08T09:14:21;100247.66;;;12.22;68.95
50368;BME280;36281;34.132;-118.018;2023-04-08T09:16:51;100246.03;;;12.21;68.72
50368;BME280;36281;34.132;-118.018;2023-04-08T09:19:20;100242.19;;;12.17;68.94
50368;BME280;36281;34.132;-118.018;2023-04-08T09:22:04;100246.09;;;12.14;68.81
50368;BME280;36281;34.132;-118.018;2023-04-08T09:24:34;100240.16;;;12.12;68.84
50368;BME280;36281;34.132;-118.018;2023-04-08T09:27:04;100238.75;;;12.10;68.22
50368;BME280;36281;34.132;-118.018;2023-04-08T09:29:35;100243.69;;;12.06;67.58
50368;BME280;36281;34.132;-118.018;2023-04-08T09:32:06;100245.75;;;12.04;67.57
50368;BME280;36281;34.132;-118.018;2023-04-08T09:34:35;100240.63;;;12.03;68.11
50368;BME280;36281;34.132;-118.018;2023-04-08T09:37:04;100221.09;;;11.90;68.17
50368;BME280;36281;34.132;-118.018;2023-04-08T09:39:34;100187.47;;;11.71;68.38
50368;BME280;36281;34.132;-118.018;2023-04-08T09:42:04;100233.91;;;12.00;68.39
50368;BME280;36281;34.132;-118.018;2023-04-08T09:44:41;100237.59;;;11.99;68.42
50368;BME280;36281;34.132;-118.018;2023-04-08T09:47:18;100240.06;;;11.94;68.39
50368;BME280;36281;34.132;-118.018;2023-04-08T09:49:54;100237.00;;;11.90;68.18
50368;BME280;36281;34.132;-118.018;2023-04-08T09:52:31;100236.44;;;11.88;68.29
50368;BME280;36281;34.132;-118.018;2023-04-08T09:55:03;100227.66;;;11.75;69.08
50368;BME280;36281;34.132;-118.018;2023-04-08T09:57:39;100229.50;;;11.74;69.86
50368;BME280;36281;34.132;-118.018;2023-04-08T10:00:12;100234.81;;;11.74;69.90
50368;BME280;36281;34.132;-118.018;2023-04-08T10:02:48;100239.31;;;11.74;69.93
50368;BME280;36281;34.132;-118.018;2023-04-08T10:05:20;100236.66;;;11.67;70.41
50368;BME280;36281;34.132;-118.018;2023-04-08T10:07:50;100233.59;;;11.63;70.42
50368;BME280;36281;34.132;-118.018;2023-04-08T10:10:19;100238.91;;;11.63;70.76
50368;BME280;36281;34.132;-118.018;2023-04-08T10:12:49;100246.69;;;11.65;70.65
50368;BME280;36281;34.132;-118.018;2023-04-08T10:15:27;100239.75;;;11.64;70.27
50368;BME280;36281;34.132;-118.018;2023-04-08T10:18:31;100216.94;;;11.50;70.27
50368;BME280;36281;34.132;-118.018;2023-04-08T10:21:00;100213.66;;;11.48;70.45
50368;BME280;36281;34.132;-118.018;2023-04-08T10:23:55;100239.34;;;11.60;70.75
50368;BME280;36281;34.132;-118.018;2023-04-08T10:26:37;100231.78;;;11.57;71.39
50368;BME280;36281;34.132;-118.018;2023-04-08T10:29:31;100229.75;;;11.53;71.43
50368;BME280;36281;34.132;-118.018;2023-04-08T10:32:02;100232.84;;;11.50;72.26
50368;BME280;36281;34.132;-118.018;2023-04-08T10:34:31;100235.31;;;11.45;72.64
50368;BME280;36281;34.132;-118.018;2023-04-08T10:37:00;100226.72;;;11.43;72.66
50368;BME280;36281;34.132;-118.018;2023-04-08T10:39:30;100214.13;;;11.31;73.04
50368;BME280;36281;34.132;-118.018;2023-04-08T10:42:00;100221.88;;;11.39;73.41
50368;BME280;36281;34.132;-118.018;2023-04-08T10:44:30;100227.16;;;11.39;73.64
50368;BME280;36281;34.132;-118.018;2023-04-08T10:46:59;100228.38;;;11.37;73.68
50368;BME280;36281;34.132;-118.018;2023-04-08T10:49:39;100221.84;;;11.33;73.59
50368;BME280;36281;34.132;-118.018;2023-04-08T10:52:09;100229.00;;;11.32;73.90
50368;BME280;36281;34.132;-118.018;2023-04-08T10:54:38;100225.13;;;11.28;74.15
50368;BME280;36281;34.132;-118.018;2023-04-08T10:57:14;100227.38;;;11.31;73.39
50368;BME280;36281;34.132;-118.018;2023-04-08T10:59:44;100232.69;;;11.31;73.03
50368;BME280;36281;34.132;-118.018;2023-04-08T11:02:13;100228.19;;;11.32;72.72
50368;BME280;36281;34.132;-118.018;2023-04-08T11:04:45;100223.31;;;11.29;72.11
50368;BME280;36281;34.132;-118.018;2023-04-08T11:07:15;100218.22;;;11.27;72.47
50368;BME280;36281;34.132;-118.018;2023-04-08T11:09:48;100217.59;;;11.25;72.14
50368;BME280;36281;34.132;-118.018;2023-04-08T11:12:18;100214.78;;;11.20;72.21
50368;BME280;36281;34.132;-118.018;2023-04-08T11:14:47;100217.19;;;11.22;72.31
50368;BME280;36281;34.132;-118.018;2023-04-08T11:17:19;100225.16;;;11.22;72.21
50368;BME280;36281;34.132;-118.018;2023-04-08T11:19:50;100226.78;;;11.23;72.74
50368;BME280;36281;34.132;-118.018;2023-04-08T11:22:20;100223.94;;;11.18;72.84
50368;BME280;36281;34.132;-118.018;2023-04-08T11:24:49;100231.50;;;11.14;73.08
50368;BME280;36281;34.132;-118.018;2023-04-08T11:27:19;100223.75;;;11.12;72.88
50368;BME280;36281;34.132;-118.018;2023-04-08T11:29:50;100223.13;;;11.10;72.49
50368;BME280;36281;34.132;-118.018;2023-04-08T11:32:20;100219.47;;;11.05;72.32
50368;BME280;36281;34.132;-118.018;2023-04-08T11:34:52;100226.00;;;11.09;72.09
50368;BME280;36281;34.132;-118.018;2023-04-08T11:37:24;100222.13;;;11.05;72.21
50368;BME280;36281;34.132;-118.018;2023-04-08T11:39:56;100218.47;;;11.06;72.07
50368;BME280;36281;34.132;-118.018;2023-04-08T11:42:29;100224.16;;;11.03;72.17
50368;BME280;36281;34.132;-118.018;2023-04-08T11:44:58;100219.66;;;11.03;71.80
50368;BME280;36281;34.132;-118.018;2023-04-08T11:47:30;100216.22;;;11.03;71.37
50368;BME280;36281;34.132;-118.018;2023-04-08T11:50:02;100220.91;;;11.01;71.91
50368;BME280;36281;34.132;-118.018;2023-04-08T11:52:44;100222.13;;;10.98;72.22
50368;BME280;36281;34.132;-118.018;2023-04-08T11:55:22;100220.28;;;10.99;71.99
50368;BME280;36281;34.132;-118.018;2023-04-08T11:57:52;100230.50;;;10.95;72.33
50368;BME280;36281;34.132;-118.018;2023-04-08T12:00:22;100218.47;;;10.93;71.75
50368;BME280;36281;34.132;-118.018;2023-04-08T12:02:51;100220.50;;;10.91;71.14
50368;BME280;36281;34.132;-118.018;2023-04-08T12:05:22;100200.34;;;10.76;71.38
50368;BME280;36281;34.132;-118.018;2023-04-08T12:07:51;100203.00;;;10.76;72.29
50368;BME280;36281;34.132;-118.018;2023-04-08T12:10:20;100217.03;;;10.83;72.26
50368;BME280;36281;34.132;-118.018;2023-04-08T12:12:49;100226.81;;;10.83;71.71
50368;BME280;36281;34.132;-118.018;2023-04-08T12:15:18;100227.25;;;10.80;71.96
50368;BME280;36281;34.132;-118.018;2023-04-08T12:17:48;100229.69;;;10.75;72.31
50368;BME280;36281;34.132;-118.018;2023-04-08T12:20:17;100233.97;;;10.76;72.19
50368;BME280;36281;34.132;-118.018;2023-04-08T12:22:48;100228.88;;;10.74;72.12
50368;BME280;36281;34.132;-118.018;2023-04-08T12:25:17;100225.00;;;10.70;72.15
50368;BME280;36281;34.132;-118.018;2023-04-08T12:27:46;100235.38;;;10.72;72.28
50368;BME280;36281;34.132;-118.018;2023-04-08T12:30:15;100236.63;;;10.69;72.20
50368;BME280;36281;34.132;-118.018;2023-04-08T12:32:44;100235.41;;;10.65;72.63
50368;BME280;36281;34.132;-118.018;2023-04-08T12:35:15;100234.75;;;10.63;72.80
50368;BME280;36281;34.132;-118.018;2023-04-08T12:37:44;100240.47;;;10.60;73.25